sensor_id;sensor_type;location;lat;lon;timestamp;P1;durP1;ratioP1;P2;durP2;ratioP2
26181;SDS011;13927;51.534;11.866;2023-11-21T00:00:17;8.25;;;3.95;;
26181;SDS011;13927;51.534;11.866;2023-11-21T00:02:43;7.78;;;3.75;;
26181;SDS011;13927;51.534;11.866;2023-11-21T00:05:10;9.80;;;3.90;;
26181;SDS011;13927;51.534;11.866;2023-11-21T00:07:39;5.80;;;3.05;;
26181;SDS011;13927;51.534;11.866;2023-11-21T00:10:07;6.90;;;3.10;;
26181;SDS011;13927;51.534;11.866;2023-11-21T00:12:34;4.70;;;2.42;;
26181;SDS011;13927;51.534;11.866;2023-11-21T00:15:00;5.28;;;2.58;;
26181;SDS011;13927;51.534;11.866;2023-11-21T00:17:26;5.05;;;2.70;;
26181;SDS011;13927;51.534;11.866;2023-11-21T00:19:52;5.60;;;2.65;;
26181;SDS011;13927;51.534;11.866;2023-11-21T00:22:18;22.58;;;2.35;;
26181;SDS011;13927;51.534;11.866;2023-11-21T00:24:45;5.68;;;2.53;;
26181;SDS011;13927;51.534;11.866;2023-11-21T00:27:14;4.53;;;2.50;;
26181;SDS011;13927;51.534;11.866;2023-11-21T00:29:39;5.57;;;2.40;;
26181;SDS011;13927;51.534;11.866;2023-11-21T00:32:05;5.95;;;3.10;;
26181;SDS011;13927;51.534;11.866;2023-11-21T00:34:32;5.03;;;2.90;;
26181;SDS011;13927;51.534;11.866;2023-11-21T00:36:59;5.43;;;2.08;;
26181;SDS011;13927;51.534;11.866;2023-11-21T00:39:25;5.38;;;1.90;;
26181;SDS011;13927;51.534;11.866;2023-11-21T00:41:51;6.53;;;2.30;;
26181;SDS011;13927;51.534;11.866;2023-11-21T00:44:17;5.43;;;2.65;;
26181;SDS011;13927;51.534;11.866;2023-11-21T00:46:43;4.80;;;2.42;;
26181;SDS011;13927;51.534;11.866;2023-11-21T00:49:09;3.75;;;2.50;;
26181;SDS011;13927;51.534;11.866;2023-11-21T00:51:35;4.78;;;2.40;;
26181;SDS011;13927;51.534;11.866;2023-11-21T00:54:01;7.93;;;3.30;;
26181;SDS011;13927;51.534;11.866;2023-11-21T00:56:27;7.05;;;2.72;;
26181;SDS011;13927;51.534;11.866;2023-11-21T00:58:53;8.45;;;2.80;;
26181;SDS011;13927;51.534;11.866;2023-11-21T01:01:20;5.30;;;2.55;;
26181;SDS011;13927;51.534;11.866;2023-11-21T01:03:49;5.70;;;2.35;;
26181;SDS011;13927;51.534;11.866;2023-11-21T01:06:16;5.95;;;2.67;;
26181;SDS011;13927;51.534;11.866;2023-11-21T01:08:43;6.32;;;2.20;;
26181;SDS011;13927;51.534;11.866;2023-11-21T01:11:09;5.72;;;2.45;;
26181;SDS011;13927;51.534;11.866;2023-11-21T01:13:37;3.38;;;2.15;;
26181;SDS011;13927;51.534;11.866;2023-11-21T01:16:04;4.53;;;2.70;;
26181;SDS011;13927;51.534;11.866;2023-11-21T01:18:34;7.18;;;2.65;;
26181;SDS011;13927;51.534;11.866;2023-11-21T01:21:01;4.88;;;2.70;;
26181;SDS011;13927;51.534;11.866;2023-11-21T01:23:26;5.72;;;2.85;;
26181;SDS011;13927;51.534;11.866;2023-11-21T01:25:52;4.97;;;2.88;;
26181;SDS011;13927;51.534;11.866;2023-11-21T01:28:21;4.53;;;2.40;;
26181;SDS011;13927;51.534;11.866;2023-11-21T01:30:46;6.18;;;2.70;;
26181;SDS011;13927;51.534;11.866;2023-11-21T01:33:13;4.85;;;2.58;;
26181;SDS011;13927;51.534;11.866;2023-11-21T01:35:40;9.07;;;2.80;;
26181;SDS011;13927;51.534;11.866;2023-11-21T01:38:07;4.80;;;2.50;;
26181;SDS011;13927;51.534;11.866;2023-11-21T01:40:33;9.25;;;2.80;;
26181;SDS011;13927;51.534;11.866;2023-11-21T01:42:59;7.28;;;2.65;;
26181;SDS011;13927;51.534;11.866;2023-11-21T01:45:28;6.53;;;3.10;;
26181;SDS011;13927;51.534;11.866;2023-11-21T01:47:56;8.57;;;2.90;;
26181;SDS011;13927;51.534;11.866;2023-11-21T01:50:23;7.80;;;3.15;;
26181;SDS011;13927;51.534;11.866;2023-11-21T01:52:50;7.55;;;3.65;;
26181;SDS011;13927;51.534;11.866;2023-11-21T01:55:16;8.55;;;3.38;;
26181;SDS011;13927;51.534;11.866;2023-11-21T01:57:43;6.30;;;3.45;;
26181;SDS011;13927;51.534;11.866;2023-11-21T02:00:11;10.25;;;3.35;;
26181;SDS011;13927;51.534;11.866;2023-11-21T02:02:42;7.03;;;3.88;;
26181;SDS011;13927;51.534;11.866;2023-11-21T02:05:09;7.82;;;3.47;;
26181;SDS011;13927;51.534;11.866;2023-11-21T02:07:43;6.72;;;3.35;;
26181;SDS011;13927;51.534;11.866;2023-11-21T02:10:10;7.47;;;3.45;;
26181;SDS011;13927;51.534;11.866;2023-11-21T02:12:40;9.23;;;3.83;;
26181;SDS011;13927;51.534;11.866;2023-11-21T02:15:12;7.00;;;3.75;;
26181;SDS011;13927;51.534;11.866;2023-11-21T02:17:45;6.15;;;3.28;;
26181;SDS011;13927;51.534;11.866;2023-11-21T02:20:16;8.98;;;3.55;;
26181;SDS011;13927;51.534;11.866;2023-11-21T02:22:43;7.65;;;3.70;;
26181;SDS011;13927;51.534;11.866;2023-11-21T02:25:25;8.38;;;3.40;;
26181;SDS011;13927;51.534;11.866;2023-11-21T02:27:56;6.00;;;3.28;;
26181;SDS011;13927;51.534;11.866;2023-11-21T02:30:23;5.30;;;2.78;;
26181;SDS011;13927;51.534;11.866;2023-11-21T02:32:58;6.97;;;3.30;;
26181;SDS011;13927;51.534;11.866;2023-11-21T02:35:27;6.10;;;2.85;;
26181;SDS011;13927;51.534;11.866;2023-11-21T02:37:53;10.52;;;3.85;;
26181;SDS011;13927;51.534;11.866;2023-11-21T02:40:19;5.82;;;3.28;;
26181;SDS011;13927;51.534;11.866;2023-11-21T02:42:50;6.85;;;3.17;;
26181;SDS011;13927;51.534;11.866;2023-11-21T02:45:16;6.63;;;3.60;;
26181;SDS011;13927;51.534;11.866;2023-11-21T02:47:45;8.75;;;4.00;;
26181;SDS011;13927;51.534;11.866;2023-11-21T02:50:12;6.88;;;3.08;;
26181;SDS011;13927;51.534;11.866;2023-11-21T02:52:38;7.03;;;3.20;;
26181;SDS011;13927;51.534;11.866;2023-11-21T02:55:05;8.65;;;3.40;;
26181;SDS011;13927;51.534;11.866;2023-11-21T02:57:32;5.60;;;3.22;;
26181;SDS011;13927;51.534;11.866;2023-11-21T02:59:58;5.00;;;2.95;;
26181;SDS011;13927;51.534;11.866;2023-11-21T03:02:27;8.00;;;3.33;;
26181;SDS011;13927;51.534;11.866;2023-11-21T03:04:53;6.15;;;3.10;;
26181;SDS011;13927;51.534;11.866;2023-11-21T03:07:18;8.73;;;3.97;;
26181;SDS011;13927;51.534;11.866;2023-11-21T03:09:45;7.20;;;4.07;;
26181;SDS011;13927;51.534;11.866;2023-11-21T03:12:11;9.68;;;4.05;;
26181;SDS011;13927;51.534;11.866;2023-11-21T03:14:41;11.38;;;3.80;;
26181;SDS011;13927;51.534;11.866;2023-11-21T03:17:06;6.03;;;3.35;;
26181;SDS011;13927;51.534;11.866;2023-11-21T03:19:32;6.85;;;3.65;;
26181;SDS011;13927;51.534;11.866;2023-11-21T03:21:58;8.98;;;3.65;;
26181;SDS011;13927;51.534;11.866;2023-11-21T03:24:24;5.18;;;3.35;;
26181;SDS011;13927;51.534;11.866;2023-11-21T03:26:51;9.68;;;3.83;;
26181;SDS011;13927;51.534;11.866;2023-11-21T03:29:17;9.48;;;4.53;;
26181;SDS011;13927;51.534;11.866;2023-11-21T03:31:42;8.50;;;3.95;;
26181;SDS011;13927;51.534;11.866;2023-11-21T03:34:23;6.25;;;3.30;;
26181;SDS011;13927;51.534;11.866;2023-11-21T03:36:51;8.90;;;3.55;;
26181;SDS011;13927;51.534;11.866;2023-11-21T03:39:19;6.18;;;3.78;;
26181;SDS011;13927;51.534;11.866;2023-11-21T03:41:45;9.43;;;3.67;;
26181;SDS011;13927;51.534;11.866;2023-11-21T03:44:12;6.88;;;3.50;;
26181;SDS011;13927;51.534;11.866;2023-11-21T03:46:38;9.25;;;4.43;;
26181;SDS011;13927;51.534;11.866;2023-11-21T03:49:04;5.75;;;3.35;;
26181;SDS011;13927;51.534;11.866;2023-11-21T03:51:29;7.07;;;3.95;;
26181;SDS011;13927;51.534;11.866;2023-11-21T03:53:55;12.45;;;3.75;;
26181;SDS011;13927;51.534;11.866;2023-11-21T03:56:21;13.07;;;4.15;;
26181;SDS011;13927;51.534;11.866;2023-11-21T03:58:47;7.60;;;3.47;;
26181;SDS011;13927;51.534;11.866;2023-11-21T04:01:22;7.05;;;4.03;;
26181;SDS011;13927;51.534;11.866;2023-11-21T04:03:49;9.18;;;3.85;;
26181;SDS011;13927;51.534;11.866;2023-11-21T04:06:16;9.57;;;3.85;;
26181;SDS011;13927;51.534;11.866;2023-11-21T04:08:43;8.10;;;4.00;;
26181;SDS011;13927;51.534;11.866;2023-11-21T04:11:10;8.25;;;3.78;;
26181;SDS011;13927;51.534;11.866;2023-11-21T04:13:39;9.32;;;4.75;;
26181;SDS011;13927;51.534;11.866;2023-11-21T04:16:06;8.80;;;4.70;;
26181;SDS011;13927;51.534;11.866;2023-11-21T04:18:33;9.88;;;4.45;;
26181;SDS011;13927;51.534;11.866;2023-11-21T04:21:01;7.60;;;4.18;;
26181;SDS011;13927;51.534;11.866;2023-11-21T04:23:28;9.85;;;4.78;;
26181;SDS011;13927;51.534;11.866;2023-11-21T04:25:55;11.15;;;4.30;;
26181;SDS011;13927;51.534;11.866;2023-11-21T04:28:22;8.32;;;4.22;;
26181;SDS011;13927;51.534;11.866;2023-11-21T04:30:49;7.60;;;4.30;;
26181;SDS011;13927;51.534;11.866;2023-11-21T04:33:15;10.82;;;4.63;;
26181;SDS011;13927;51.534;11.866;2023-11-21T04:35:41;8.48;;;4.20;;
26181;SDS011;13927;51.534;11.866;2023-11-21T04:38:07;7.10;;;3.80;;
26181;SDS011;13927;51.534;11.866;2023-11-21T04:40:33;8.27;;;4.32;;
26181;SDS011;13927;51.534;11.866;2023-11-21T04:42:58;9.02;;;3.83;;
26181;SDS011;13927;51.534;11.866;2023-11-21T04:45:24;7.82;;;4.10;;
26181;SDS011;13927;51.534;11.866;2023-11-21T04:47:50;10.40;;;4.40;;
26181;SDS011;13927;51.534;11.866;2023-11-21T04:50:17;11.23;;;4.15;;
26181;SDS011;13927;51.534;11.866;2023-11-21T04:52:44;9.50;;;4.43;;
26181;SDS011;13927;51.534;11.866;2023-11-21T04:55:09;9.15;;;4.00;;
26181;SDS011;13927;51.534;11.866;2023-11-21T04:57:38;9.35;;;4.03;;
26181;SDS011;13927;51.534;11.866;2023-11-21T05:00:06;9.95;;;4.63;;
26181;SDS011;13927;51.534;11.866;2023-11-21T05:02:34;74.43;;;33.28;;
26181;SDS011;13927;51.534;11.866;2023-11-21T05:05:00;39.05;;;20.00;;
26181;SDS011;13927;51.534;11.866;2023-11-21T05:07:27;13.98;;;7.18;;
26181;SDS011;13927;51.534;11.866;2023-11-21T05:09:54;10.15;;;5.22;;
26181;SDS011;13927;51.534;11.866;2023-11-21T05:12:21;10.15;;;5.57;;
26181;SDS011;13927;51.534;11.866;2023-11-21T05:14:50;9.30;;;5.05;;
26181;SDS011;13927;51.534;11.866;2023-11-21T05:17:16;11.65;;;4.70;;
26181;SDS011;13927;51.534;11.866;2023-11-21T05:19:42;14.15;;;5.43;;
26181;SDS011;13927;51.534;11.866;2023-11-21T05:22:10;9.80;;;4.88;;
26181;SDS011;13927;51.534;11.866;2023-11-21T05:24:37;7.95;;;4.50;;
26181;SDS011;13927;51.534;11.866;2023-11-21T05:27:04;9.77;;;4.65;;
26181;SDS011;13927;51.534;11.866;2023-11-21T05:29:30;9.30;;;4.50;;
26181;SDS011;13927;51.534;11.866;2023-11-21T05:31:56;9.93;;;4.53;;
26181;SDS011;13927;51.534;11.866;2023-11-21T05:34:21;8.43;;;4.15;;
26181;SDS011;13927;51.534;11.866;2023-11-21T05:36:49;10.35;;;4.55;;
26181;SDS011;13927;51.534;11.866;2023-11-21T05:39:15;9.82;;;4.97;;
26181;SDS011;13927;51.534;11.866;2023-11-21T05:41:44;10.48;;;4.57;;
26181;SDS011;13927;51.534;11.866;2023-11-21T05:44:10;7.88;;;4.45;;
26181;SDS011;13927;51.534;11.866;2023-11-21T05:46:37;20.15;;;14.45;;
26181;SDS011;13927;51.534;11.866;2023-11-21T05:49:02;12.82;;;7.45;;
26181;SDS011;13927;51.534;11.866;2023-11-21T05:51:28;8.73;;;4.88;;
26181;SDS011;13927;51.534;11.866;2023-11-21T05:53:54;13.43;;;4.57;;
26181;SDS011;13927;51.534;11.866;2023-11-21T05:56:20;10.45;;;3.90;;
26181;SDS011;13927;51.534;11.866;2023-11-21T05:58:46;9.63;;;3.60;;
26181;SDS011;13927;51.534;11.866;2023-11-21T06:01:11;11.27;;;4.25;;
26181;SDS011;13927;51.534;11.866;2023-11-21T06:03:38;10.95;;;4.70;;
26181;SDS011;13927;51.534;11.866;2023-11-21T06:06:04;7.60;;;4.20;;
26181;SDS011;13927;51.534;11.866;2023-11-21T06:08:30;11.50;;;4.40;;
26181;SDS011;13927;51.534;11.866;2023-11-21T06:10:56;6.75;;;3.78;;
26181;SDS011;13927;51.534;11.866;2023-11-21T06:13:21;10.43;;;4.20;;
26181;SDS011;13927;51.534;11.866;2023-11-21T06:15:49;7.03;;;3.60;;
26181;SDS011;13927;51.534;11.866;2023-11-21T06:18:16;10.15;;;4.68;;
26181;SDS011;13927;51.534;11.866;2023-11-21T06:20:44;8.50;;;4.28;;
26181;SDS011;13927;51.534;11.866;2023-11-21T06:23:11;9.98;;;5.03;;
26181;SDS011;13927;51.534;11.866;2023-11-21T06:25:37;10.98;;;4.32;;
26181;SDS011;13927;51.534;11.866;2023-11-21T06:28:03;9.15;;;4.97;;
26181;SDS011;13927;51.534;11.866;2023-11-21T06:30:28;11.30;;;4.57;;
26181;SDS011;13927;51.534;11.866;2023-11-21T06:32:54;10.52;;;5.43;;
26181;SDS011;13927;51.534;11.866;2023-11-21T06:35:21;12.13;;;4.95;;
26181;SDS011;13927;51.534;11.866;2023-11-21T06:37:47;24.95;;;13.93;;
26181;SDS011;13927;51.534;11.866;2023-11-21T06:40:13;20.13;;;11.30;;
26181;SDS011;13927;51.534;11.866;2023-11-21T06:42:43;23.35;;;14.02;;
26181;SDS011;13927;51.534;11.866;2023-11-21T06:45:09;18.35;;;11.05;;
26181;SDS011;13927;51.534;11.866;2023-11-21T06:47:36;18.42;;;10.70;;
26181;SDS011;13927;51.534;11.866;2023-11-21T06:50:03;13.32;;;7.90;;
26181;SDS011;13927;51.534;11.866;2023-11-21T06:52:29;16.20;;;6.78;;
26181;SDS011;13927;51.534;11.866;2023-11-21T06:54:55;13.57;;;6.72;;
26181;SDS011;13927;51.534;11.866;2023-11-21T06:57:22;17.92;;;6.20;;
26181;SDS011;13927;51.534;11.866;2023-11-21T06:59:48;22.08;;;8.38;;
26181;SDS011;13927;51.534;11.866;2023-11-21T07:02:15;24.05;;;13.55;;
26181;SDS011;13927;51.534;11.866;2023-11-21T07:04:43;20.33;;;10.30;;
26181;SDS011;13927;51.534;11.866;2023-11-21T07:07:11;20.65;;;8.52;;
26181;SDS011;13927;51.534;11.866;2023-11-21T07:09:37;27.92;;;11.90;;
26181;SDS011;13927;51.534;11.866;2023-11-21T07:12:04;29.85;;;13.18;;
26181;SDS011;13927;51.534;11.866;2023-11-21T07:14:32;36.03;;;14.32;;
26181;SDS011;13927;51.534;11.866;2023-11-21T07:16:59;32.83;;;12.23;;
26181;SDS011;13927;51.534;11.866;2023-11-21T07:19:25;22.77;;;10.68;;
26181;SDS011;13927;51.534;11.866;2023-11-21T07:21:50;17.80;;;8.68;;
26181;SDS011;13927;51.534;11.866;2023-11-21T07:24:16;20.60;;;8.50;;
26181;SDS011;13927;51.534;11.866;2023-11-21T07:26:42;14.57;;;7.03;;
26181;SDS011;13927;51.534;11.866;2023-11-21T07:29:08;15.38;;;6.10;;
26181;SDS011;13927;51.534;11.866;2023-11-21T07:31:34;13.77;;;5.75;;
26181;SDS011;13927;51.534;11.866;2023-11-21T07:34:00;14.55;;;5.20;;
26181;SDS011;13927;51.534;11.866;2023-11-21T07:36:26;11.02;;;5.20;;
26181;SDS011;13927;51.534;11.866;2023-11-21T07:38:52;13.90;;;5.65;;
26181;SDS011;13927;51.534;11.866;2023-11-21T07:41:19;10.73;;;4.00;;
26181;SDS011;13927;51.534;11.866;2023-11-21T07:43:45;8.70;;;4.35;;
26181;SDS011;13927;51.534;11.866;2023-11-21T07:46:12;9.85;;;4.55;;
26181;SDS011;13927;51.534;11.866;2023-11-21T07:48:38;8.23;;;4.25;;
26181;SDS011;13927;51.534;11.866;2023-11-21T07:51:06;14.60;;;4.57;;
26181;SDS011;13927;51.534;11.866;2023-11-21T07:53:35;8.95;;;4.30;;
26181;SDS011;13927;51.534;11.866;2023-11-21T07:56:05;7.10;;;3.65;;
26181;SDS011;13927;51.534;11.866;2023-11-21T07:58:35;9.77;;;4.88;;
26181;SDS011;13927;51.534;11.866;2023-11-21T08:01:02;8.25;;;3.75;;
26181;SDS011;13927;51.534;11.866;2023-11-21T08:03:28;9.95;;;4.50;;
26181;SDS011;13927;51.534;11.866;2023-11-21T08:05:55;13.60;;;5.80;;
26181;SDS011;13927;51.534;11.866;2023-11-21T08:08:22;11.43;;;5.03;;
26181;SDS011;13927;51.534;11.866;2023-11-21T08:10:48;12.60;;;5.38;;
26181;SDS011;13927;51.534;11.866;2023-11-21T08:13:21;12.07;;;5.82;;
26181;SDS011;13927;51.534;11.866;2023-11-21T08:15:53;13.95;;;6.97;;
26181;SDS011;13927;51.534;11.866;2023-11-21T08:18:20;16.75;;;7.03;;
26181;SDS011;13927;51.534;11.866;2023-11-21T08:20:45;13.13;;;6.40;;
26181;SDS011;13927;51.534;11.866;2023-11-21T08:23:14;18.20;;;7.40;;
26181;SDS011;13927;51.534;11.866;2023-11-21T08:25:44;19.88;;;7.38;;
26181;SDS011;13927;51.534;11.866;2023-11-21T08:28:10;15.30;;;7.80;;
26181;SDS011;13927;51.534;11.866;2023-11-21T08:30:37;19.20;;;7.93;;
26181;SDS011;13927;51.534;11.866;2023-11-21T08:33:03;18.52;;;8.15;;
26181;SDS011;13927;51.534;11.866;2023-11-21T08:35:29;21.17;;;7.72;;
26181;SDS011;13927;51.534;11.866;2023-11-21T08:37:56;18.00;;;7.95;;
26181;SDS011;13927;51.534;11.866;2023-11-21T08:40:22;18.15;;;8.68;;
26181;SDS011;13927;51.534;11.866;2023-11-21T08:42:48;23.70;;;8.88;;
26181;SDS011;13927;51.534;11.866;2023-11-21T08:45:16;22.05;;;9.32;;
26181;SDS011;13927;51.534;11.866;2023-11-21T08:47:42;25.60;;;9.43;;
26181;SDS011;13927;51.534;11.866;2023-11-21T08:50:11;19.92;;;9.85;;
26181;SDS011;13927;51.534;11.866;2023-11-21T08:52:40;18.08;;;8.63;;
26181;SDS011;13927;51.534;11.866;2023-11-21T08:55:10;17.85;;;8.77;;
26181;SDS011;13927;51.534;11.866;2023-11-21T08:57:37;18.30;;;8.65;;
26181;SDS011;13927;51.534;11.866;2023-11-21T09:00:06;22.85;;;8.98;;
26181;SDS011;13927;51.534;11.866;2023-11-21T09:02:39;21.45;;;8.73;;
26181;SDS011;13927;51.534;11.866;2023-11-21T09:05:07;21.33;;;9.73;;
26181;SDS011;13927;51.534;11.866;2023-11-21T09:07:34;20.98;;;9.45;;
26181;SDS011;13927;51.534;11.866;2023-11-21T09:10:01;21.92;;;10.32;;
26181;SDS011;13927;51.534;11.866;2023-11-21T09:12:28;21.33;;;9.30;;
26181;SDS011;13927;51.534;11.866;2023-11-21T09:14:54;19.35;;;9.77;;
26181;SDS011;13927;51.534;11.866;2023-11-21T09:17:20;22.13;;;10.02;;
26181;SDS011;13927;51.534;11.866;2023-11-21T09:19:45;18.98;;;9.45;;
26181;SDS011;13927;51.534;11.866;2023-11-21T09:22:16;17.17;;;8.75;;
26181;SDS011;13927;51.534;11.866;2023-11-21T09:24:43;22.38;;;9.15;;
26181;SDS011;13927;51.534;11.866;2023-11-21T09:27:09;23.67;;;10.63;;
26181;SDS011;13927;51.534;11.866;2023-11-21T09:29:36;19.63;;;8.77;;
26181;SDS011;13927;51.534;11.866;2023-11-21T09:32:03;21.73;;;9.60;;
26181;SDS011;13927;51.534;11.866;2023-11-21T09:34:33;20.75;;;9.98;;
26181;SDS011;13927;51.534;11.866;2023-11-21T09:37:03;16.38;;;7.82;;
26181;SDS011;13927;51.534;11.866;2023-11-21T09:39:31;20.25;;;9.40;;
26181;SDS011;13927;51.534;11.866;2023-11-21T09:42:01;18.83;;;9.05;;
26181;SDS011;13927;51.534;11.866;2023-11-21T09:44:47;21.17;;;8.82;;
26181;SDS011;13927;51.534;11.866;2023-11-21T09:47:26;18.80;;;8.98;;
26181;SDS011;13927;51.534;11.866;2023-11-21T09:49:53;22.63;;;10.10;;
26181;SDS011;13927;51.534;11.866;2023-11-21T09:52:25;22.45;;;10.13;;
26181;SDS011;13927;51.534;11.866;2023-11-21T09:54:53;21.17;;;11.13;;
26181;SDS011;13927;51.534;11.866;2023-11-21T09:57:22;23.58;;;9.65;;
26181;SDS011;13927;51.534;11.866;2023-11-21T09:59:50;22.13;;;8.98;;
26181;SDS011;13927;51.534;11.866;2023-11-21T10:02:22;17.27;;;7.60;;
26181;SDS011;13927;51.534;11.866;2023-11-21T10:04:53;13.93;;;6.80;;
26181;SDS011;13927;51.534;11.866;2023-11-21T10:07:20;11.70;;;5.88;;
26181;SDS011;13927;51.534;11.866;2023-11-21T10:09:46;11.45;;;5.82;;
26181;SDS011;13927;51.534;11.866;2023-11-21T10:12:14;14.90;;;6.85;;
26181;SDS011;13927;51.534;11.866;2023-11-21T10:14:43;12.98;;;7.05;;
26181;SDS011;13927;51.534;11.866;2023-11-21T10:17:14;15.70;;;6.95;;
26181;SDS011;13927;51.534;11.866;2023-11-21T10:19:46;16.38;;;6.85;;
26181;SDS011;13927;51.534;11.866;2023-11-21T10:22:15;12.80;;;6.90;;
26181;SDS011;13927;51.534;11.866;2023-11-21T10:24:42;13.63;;;7.47;;
26181;SDS011;13927;51.534;11.866;2023-11-21T10:27:08;16.98;;;7.82;;
26181;SDS011;13927;51.534;11.866;2023-11-21T10:29:34;15.27;;;8.10;;
26181;SDS011;13927;51.534;11.866;2023-11-21T10:32:01;15.68;;;7.45;;
26181;SDS011;13927;51.534;11.866;2023-11-21T10:34:28;14.45;;;8.50;;
26181;SDS011;13927;51.534;11.866;2023-11-21T10:36:54;13.48;;;7.75;;
26181;SDS011;13927;51.534;11.866;2023-11-21T10:39:23;14.15;;;7.55;;
26181;SDS011;13927;51.534;11.866;2023-11-21T10:41:52;15.35;;;7.78;;
26181;SDS011;13927;51.534;11.866;2023-11-21T10:44:20;14.98;;;7.85;;
26181;SDS011;13927;51.534;11.866;2023-11-21T10:46:50;13.50;;;8.13;;
26181;SDS011;13927;51.534;11.866;2023-11-21T10:49:20;14.13;;;7.30;;
26181;SDS011;13927;51.534;11.866;2023-11-21T10:51:55;12.30;;;7.60;;
26181;SDS011;13927;51.534;11.866;2023-11-21T10:54:22;12.75;;;7.00;;
26181;SDS011;13927;51.534;11.866;2023-11-21T10:56:51;14.35;;;8.10;;
26181;SDS011;13927;51.534;11.866;2023-11-21T10:59:22;13.40;;;6.82;;
26181;SDS011;13927;51.534;11.866;2023-11-21T11:01:50;13.07;;;7.18;;
26181;SDS011;13927;51.534;11.866;2023-11-21T11:04:20;10.77;;;5.93;;
26181;SDS011;13927;51.534;11.866;2023-11-21T11:07:02;12.52;;;6.43;;
26181;SDS011;13927;51.534;11.866;2023-11-21T11:09:31;12.43;;;6.75;;
26181;SDS011;13927;51.534;11.866;2023-11-21T11:12:01;11.23;;;6.32;;
26181;SDS011;13927;51.534;11.866;2023-11-21T11:14:29;13.13;;;7.00;;
26181;SDS011;13927;51.534;11.866;2023-11-21T11:16:57;9.80;;;6.07;;
26181;SDS011;13927;51.534;11.866;2023-11-21T11:19:25;10.02;;;6.18;;
26181;SDS011;13927;51.534;11.866;2023-11-21T11:21:55;12.23;;;6.68;;
26181;SDS011;13927;51.534;11.866;2023-11-21T11:24:40;11.88;;;6.18;;
26181;SDS011;13927;51.534;11.866;2023-11-21T11:27:48;12.00;;;6.15;;
26181;SDS011;13927;51.534;11.866;2023-11-21T11:36:29;17.83;;;9.68;;
26181;SDS011;13927;51.534;11.866;2023-11-21T11:39:26;16.00;;;8.40;;
26181;SDS011;13927;51.534;11.866;2023-11-21T11:42:01;18.60;;;9.70;;
26181;SDS011;13927;51.534;11.866;2023-11-21T11:47:21;20.67;;;8.45;;
26181;SDS011;13927;51.534;11.866;2023-11-21T11:50:03;16.98;;;8.98;;
26181;SDS011;13927;51.534;11.866;2023-11-21T11:52:46;16.98;;;8.90;;
26181;SDS011;13927;51.534;11.866;2023-11-21T11:55:18;20.52;;;9.80;;
26181;SDS011;13927;51.534;11.866;2023-11-21T11:57:47;18.40;;;9.70;;
26181;SDS011;13927;51.534;11.866;2023-11-21T12:02:54;16.85;;;8.60;;
26181;SDS011;13927;51.534;11.866;2023-11-21T12:05:27;22.02;;;9.98;;
26181;SDS011;13927;51.534;11.866;2023-11-21T12:07:57;19.60;;;10.13;;
26181;SDS011;13927;51.534;11.866;2023-11-21T12:10:29;22.33;;;9.50;;
26181;SDS011;13927;51.534;11.866;2023-11-21T12:12:57;17.15;;;9.23;;
26181;SDS011;13927;51.534;11.866;2023-11-21T12:15:28;16.65;;;8.15;;
26181;SDS011;13927;51.534;11.866;2023-11-21T12:17:56;18.45;;;9.07;;
26181;SDS011;13927;51.534;11.866;2023-11-21T12:20:24;17.80;;;9.50;;
26181;SDS011;13927;51.534;11.866;2023-11-21T12:25:20;22.75;;;9.43;;
26181;SDS011;13927;51.534;11.866;2023-11-21T12:27:52;18.20;;;8.68;;
26181;SDS011;13927;51.534;11.866;2023-11-21T12:30:18;15.80;;;8.27;;
26181;SDS011;13927;51.534;11.866;2023-11-21T12:32:50;15.75;;;8.63;;
26181;SDS011;13927;51.534;11.866;2023-11-21T12:35:22;17.23;;;8.82;;
26181;SDS011;13927;51.534;11.866;2023-11-21T12:38:02;17.45;;;8.73;;
26181;SDS011;13927;51.534;11.866;2023-11-21T12:40:34;17.95;;;7.50;;
26181;SDS011;13927;51.534;11.866;2023-11-21T12:43:00;14.18;;;7.40;;
26181;SDS011;13927;51.534;11.866;2023-11-21T12:45:27;16.45;;;7.78;;
26181;SDS011;13927;51.534;11.866;2023-11-21T12:47:57;13.10;;;7.82;;
26181;SDS011;13927;51.534;11.866;2023-11-21T12:50:32;13.93;;;6.97;;
26181;SDS011;13927;51.534;11.866;2023-11-21T12:53:02;13.55;;;6.68;;
26181;SDS011;13927;51.534;11.866;2023-11-21T12:55:34;10.15;;;4.88;;
26181;SDS011;13927;51.534;11.866;2023-11-21T12:58:06;14.43;;;7.38;;
26181;SDS011;13927;51.534;11.866;2023-11-21T13:03:05;11.10;;;6.03;;
26181;SDS011;13927;51.534;11.866;2023-11-21T13:05:33;11.27;;;5.95;;
26181;SDS011;13927;51.534;11.866;2023-11-21T13:08:03;9.80;;;5.72;;
26181;SDS011;13927;51.534;11.866;2023-11-21T13:10:37;11.07;;;5.90;;
26181;SDS011;13927;51.534;11.866;2023-11-21T13:13:07;9.55;;;5.90;;
26181;SDS011;13927;51.534;11.866;2023-11-21T13:15:39;9.68;;;5.50;;
26181;SDS011;13927;51.534;11.866;2023-11-21T13:18:08;11.48;;;6.43;;
26181;SDS011;13927;51.534;11.866;2023-11-21T13:20:36;12.00;;;5.80;;
26181;SDS011;13927;51.534;11.866;2023-11-21T13:23:06;11.80;;;6.72;;
26181;SDS011;13927;51.534;11.866;2023-11-21T13:25:33;10.73;;;5.88;;
26181;SDS011;13927;51.534;11.866;2023-11-21T13:27:59;12.82;;;6.05;;
26181;SDS011;13927;51.534;11.866;2023-11-21T13:30:26;11.80;;;6.00;;
26181;SDS011;13927;51.534;11.866;2023-11-21T13:32:58;12.00;;;6.40;;
26181;SDS011;13927;51.534;11.866;2023-11-21T13:35:35;11.88;;;6.13;;
26181;SDS011;13927;51.534;11.866;2023-11-21T13:40:37;11.38;;;6.45;;
26181;SDS011;13927;51.534;11.866;2023-11-21T13:43:11;13.77;;;7.38;;
26181;SDS011;13927;51.534;11.866;2023-11-21T13:45:39;12.38;;;6.18;;
26181;SDS011;13927;51.534;11.866;2023-11-21T13:48:07;12.38;;;6.47;;
26181;SDS011;13927;51.534;11.866;2023-11-21T13:50:38;13.32;;;6.82;;
26181;SDS011;13927;51.534;11.866;2023-11-21T13:53:24;10.23;;;5.60;;
26181;SDS011;13927;51.534;11.866;2023-11-21T13:55:51;9.73;;;5.93;;
26181;SDS011;13927;51.534;11.866;2023-11-21T13:58:23;15.13;;;7.05;;
26181;SDS011;13927;51.534;11.866;2023-11-21T14:01:04;12.07;;;6.03;;
26181;SDS011;13927;51.534;11.866;2023-11-21T14:06:09;13.07;;;6.30;;
26181;SDS011;13927;51.534;11.866;2023-11-21T14:08:40;10.65;;;6.15;;
26181;SDS011;13927;51.534;11.866;2023-11-21T14:11:07;11.07;;;5.38;;
26181;SDS011;13927;51.534;11.866;2023-11-21T14:13:33;11.00;;;5.90;;
26181;SDS011;13927;51.534;11.866;2023-11-21T14:16:00;12.20;;;6.07;;
26181;SDS011;13927;51.534;11.866;2023-11-21T14:18:27;11.27;;;5.68;;
26181;SDS011;13927;51.534;11.866;2023-11-21T14:21:03;8.93;;;5.65;;
26181;SDS011;13927;51.534;11.866;2023-11-21T14:23:33;9.45;;;6.07;;
26181;SDS011;13927;51.534;11.866;2023-11-21T14:26:01;10.35;;;5.57;;
26181;SDS011;13927;51.534;11.866;2023-11-21T14:28:27;11.23;;;6.35;;
26181;SDS011;13927;51.534;11.866;2023-11-21T14:30:53;9.90;;;5.97;;
26181;SDS011;13927;51.534;11.866;2023-11-21T14:33:19;12.32;;;6.13;;
26181;SDS011;13927;51.534;11.866;2023-11-21T14:35:44;12.68;;;6.47;;
26181;SDS011;13927;51.534;11.866;2023-11-21T14:38:11;10.45;;;6.55;;
26181;SDS011;13927;51.534;11.866;2023-11-21T14:40:39;15.60;;;6.63;;
26181;SDS011;13927;51.534;11.866;2023-11-21T14:43:06;13.45;;;7.22;;
26181;SDS011;13927;51.534;11.866;2023-11-21T14:45:32;13.60;;;7.13;;
26181;SDS011;13927;51.534;11.866;2023-11-21T14:47:58;15.13;;;7.30;;
26181;SDS011;13927;51.534;11.866;2023-11-21T14:50:41;14.93;;;7.18;;
26181;SDS011;13927;51.534;11.866;2023-11-21T14:53:11;14.07;;;6.63;;